createdAt,value
2023-01-08T00:01:36.301Z,57493.47
2023-01-08T00:04:06.603Z,57238.72
2023-01-08T00:06:35.738Z,57159.09
2023-01-08T00:09:04.729Z,57143.19
2023-01-08T00:11:33.320Z,57135.22
2023-01-08T00:14:02.781Z,56987.97
2023-01-08T00:16:32.074Z,57041.69
2023-01-08T00:19:00.683Z,56876.50
2023-01-08T00:21:30.933Z,56880.50
2023-01-08T00:23:59.409Z,56689.44
2023-01-08T00:26:28.105Z,56703.38
2023-01-08T00:28:57.096Z,56633.75
2023-01-08T00:31:25.675Z,56591.94
2023-01-08T00:33:54.186Z,56570.06
2023-01-08T00:36:22.727Z,56550.16
2023-01-08T00:38:52.625Z,56697.41
2023-01-08T00:41:21.128Z,56516.34
2023-01-08T00:43:49.619Z,56568.06
2023-01-08T00:46:18.491Z,56661.59
2023-01-08T00:48:46.953Z,56613.84
2023-01-08T00:51:15.413Z,56625.78
2023-01-08T00:53:43.807Z,56649.66
2023-01-08T00:56:13.575Z,56611.84
2023-01-08T00:58:41.911Z,56474.53
2023-01-08T01:01:11.802Z,56651.66
2023-01-08T01:03:41.178Z,56721.28
2023-01-08T01:06:10.072Z,56763.09
2023-01-08T01:08:38.532Z,56747.16
2023-01-08T01:11:10.885Z,56838.69
2023-01-08T01:13:40.613Z,56735.22
2023-01-08T01:16:10.120Z,56872.53
2023-01-08T01:18:38.706Z,56838.69
2023-01-08T01:21:12.188Z,56816.81
2023-01-08T01:23:40.808Z,56840.69
2023-01-08T01:26:16.442Z,56741.19
2023-01-08T01:28:49.152Z,56796.91
2023-01-08T01:31:18.029Z,56769.06
2023-01-08T01:33:48.148Z,56848.66
2023-01-08T01:36:18.126Z,56828.75
2023-01-08T01:38:47.196Z,56860.59
2023-01-08T01:41:24.599Z,56944.19
2023-01-08T01:43:55.492Z,56985.97
2023-01-08T01:46:35.920Z,57031.75
2023-01-08T01:49:09.937Z,57059.59
2023-01-08T01:51:41.691Z,57105.38
2023-01-08T01:54:12.606Z,57017.81
2023-01-08T01:56:41.349Z,57009.84
2023-01-08T01:59:12.111Z,56991.94
2023-01-08T02:01:42.784Z,56976.00
2023-01-08T02:04:12.452Z,57031.75
2023-01-08T02:06:47.385Z,57043.69
2023-01-08T02:09:23.903Z,57109.34
2023-01-08T02:12:11.086Z,57282.50
2023-01-08T02:14:48.625Z,57399.94
2023-01-08T02:17:22.375Z,57563.16
2023-01-08T02:19:54.409Z,57855.75
2023-01-08T02:22:37.594Z,58152.38
2023-01-08T02:25:12.558Z,58419.16
2023-01-08T02:27:46.942Z,58508.75
2023-01-08T02:30:15.650Z,58664.03
2023-01-08T02:32:44.481Z,58679.97
2023-01-08T02:35:13.391Z,58522.69
2023-01-08T02:37:42.934Z,58389.28
2023-01-08T02:40:24.132Z,58349.47
2023-01-08T02:42:59.246Z,58094.63
2023-01-08T02:45:37.056Z,57955.28
2023-01-08T02:48:11.721Z,57790.06
2023-01-08T02:50:44.883Z,57718.41
2023-01-08T02:53:17.283Z,57616.88
2023-01-08T02:55:50.867Z,57473.56
2023-01-08T02:58:22.995Z,57419.84
2023-01-08T03:00:56.558Z,57298.44
2023-01-08T03:03:27.578Z,57011.84
2023-01-08T03:05:59.835Z,56723.28
2023-01-08T03:08:29.598Z,56749.16
2023-01-08T03:11:06.280Z,56601.91
2023-01-08T03:13:42.890Z,56448.69
2023-01-08T03:16:18.204Z,56335.25
2023-01-08T03:18:50.571Z,56249.72
2023-01-08T03:21:22.267Z,56257.66
2023-01-08T03:23:52.291Z,56309.41
2023-01-08T03:26:25.965Z,56239.75
2023-01-08T03:28:58.707Z,56203.94
2023-01-08T03:31:30.265Z,56221.84
2023-01-08T03:34:00.703Z,56192.00
2023-01-08T03:36:32.235Z,56138.28
2023-01-08T03:39:04.928Z,56092.53
2023-01-08T03:41:37.239Z,56154.22
2023-01-08T03:44:07.230Z,56136.28
2023-01-08T03:46:41.588Z,56072.63
2023-01-08T03:49:10.718Z,56152.22
2023-01-08T03:51:42.590Z,56096.50
2023-01-08T03:54:14.886Z,56116.41
2023-01-08T03:56:43.372Z,56064.69
2023-01-08T03:59:13.889Z,56020.91
2023-01-08T04:01:42.532Z,55885.63
2023-01-08T04:04:12.263Z,55845.81
2023-01-08T04:06:40.706Z,55893.56
2023-01-08T04:09:09.118Z,55861.75
2023-01-08T04:11:37.671Z,55893.56
2023-01-08T04:14:06.387Z,55969.19
2023-01-08T04:16:36.169Z,56014.94
2023-01-08T04:19:04.610Z,55951.28
2023-01-08T04:21:33.235Z,55740.38
2023-01-08T04:24:01.759Z,55798.09
2023-01-08T04:26:30.288Z,55951.28
2023-01-08T04:28:58.922Z,56096.50
2023-01-08T04:31:27.456Z,56030.84
2023-01-08T04:33:57.285Z,56082.56
2023-01-08T04:36:25.701Z,55949.28
2023-01-08T04:38:54.122Z,56088.53
2023-01-08T04:41:22.521Z,56180.06
2023-01-08T04:43:51.258Z,56217.88
2023-01-08T04:46:19.738Z,56325.31
2023-01-08T04:48:48.337Z,56462.59
2023-01-08T04:51:18.212Z,56585.97
2023-01-08T04:53:46.690Z,56705.38
2023-01-08T04:56:15.286Z,56862.59
2023-01-08T04:58:43.720Z,57029.75
2023-01-08T05:01:13.894Z,57135.22
2023-01-08T05:03:42.492Z,57250.66
2023-01-08T05:06:11.147Z,57019.81
2023-01-08T05:08:41.126Z,56786.97
2023-01-08T05:11:09.471Z,56456.63
2023-01-08T05:13:37.897Z,56229.81
2023-01-08T05:16:06.961Z,56152.22
2023-01-08T05:18:35.613Z,55981.13
2023-01-08T05:21:06.244Z,55702.59
2023-01-08T05:23:35.221Z,55515.59
2023-01-08T05:26:07.287Z,55459.91
2023-01-08T05:28:36.257Z,55519.56
2023-01-08T05:31:04.832Z,55722.47
2023-01-08T05:33:33.637Z,55887.59
2023-01-08T05:36:02.152Z,55917.44
2023-01-08T05:38:30.461Z,56044.78
2023-01-08T05:40:59.016Z,56182.06
2023-01-08T05:43:28.859Z,56086.56
2023-01-08T05:46:00.008Z,56024.88
2023-01-08T05:48:28.531Z,55718.50
2023-01-08T05:50:57.397Z,55346.50
2023-01-08T05:53:25.878Z,55103.84
2023-01-08T05:55:59.124Z,54946.72
2023-01-08T05:58:29.018Z,54835.34
2023-01-08T06:01:03.028Z,54668.28
2023-01-08T06:03:31.443Z,54632.50
2023-01-08T06:06:00.939Z,54509.19
2023-01-08T06:08:29.450Z,54493.28
2023-01-08T06:11:01.542Z,54529.06
2023-01-08T06:13:31.625Z,54548.97
2023-01-08T06:16:01.367Z,54646.41
2023-01-08T06:18:30.641Z,54664.31
2023-01-08T06:20:58.946Z,54741.88
2023-01-08T06:23:27.585Z,54801.53
2023-01-08T06:25:57.013Z,54883.06
2023-01-08T06:28:26.144Z,54918.88
2023-01-08T06:30:58.343Z,54948.72
2023-01-08T06:33:26.971Z,54998.44
2023-01-08T06:35:55.527Z,55105.84
2023-01-08T06:38:24.019Z,55151.59
2023-01-08T06:40:52.683Z,55175.44
2023-01-08T06:43:23.985Z,55260.97
2023-01-08T06:45:58.527Z,55298.78
2023-01-08T06:48:27.285Z,55326.63
2023-01-08T06:50:56.376Z,55416.13
2023-01-08T06:53:24.976Z,55459.91
2023-01-08T06:55:57.127Z,55445.97
2023-01-08T06:58:26.168Z,55503.66
2023-01-08T07:00:54.580Z,55565.31
2023-01-08T07:03:24.281Z,55632.97
2023-01-08T07:05:52.956Z,55722.47
2023-01-08T07:08:21.660Z,55760.28
2023-01-08T07:10:50.339Z,55837.88
2023-01-08T07:13:18.675Z,55929.38
2023-01-08T07:15:47.264Z,56032.84
2023-01-08T07:18:15.840Z,56072.63
2023-01-08T07:20:45.913Z,56170.13
2023-01-08T07:23:14.223Z,56229.81
2023-01-08T07:25:42.853Z,56231.81
2023-01-08T07:28:13.648Z,56379.03
2023-01-08T07:30:43.306Z,56309.41
2023-01-08T07:33:11.899Z,56307.41
2023-01-08T07:35:40.456Z,56305.41
2023-01-08T07:38:10.583Z,56402.91
2023-01-08T07:40:39.648Z,56404.91
2023-01-08T07:43:08.291Z,56359.13
2023-01-08T07:45:36.973Z,56333.28
2023-01-08T07:48:06.266Z,56406.91
2023-01-08T07:50:34.909Z,56351.19
2023-01-08T07:53:03.851Z,56414.84
2023-01-08T07:55:33.763Z,56408.88
2023-01-08T07:58:02.251Z,56432.75
2023-01-08T08:00:30.803Z,56432.75
2023-01-08T08:03:05.175Z,56400.94
2023-01-08T08:05:35.460Z,56474.53
2023-01-08T08:08:08.492Z,56466.59
2023-01-08T08:10:38.558Z,56466.59
2023-01-08T08:13:07.745Z,56498.44
2023-01-08T08:15:39.419Z,56552.16
2023-01-08T08:18:08.196Z,56542.19
2023-01-08T08:20:37.072Z,56582.00
2023-01-08T08:23:08.147Z,56673.53
2023-01-08T08:25:38.445Z,56711.34
2023-01-08T08:28:07.893Z,56788.94
2023-01-08T08:30:37.219Z,56896.41
2023-01-08T08:33:08.006Z,56912.34
2023-01-08T08:35:37.471Z,57258.63
2023-01-08T08:38:06.422Z,57222.78
2023-01-08T08:40:35.099Z,57437.75
2023-01-08T08:43:05.968Z,57497.47
2023-01-08T08:45:34.589Z,57583.06
2023-01-08T08:48:03.215Z,57662.66
2023-01-08T08:50:31.753Z,57736.31
2023-01-08T08:53:01.559Z,57736.31
2023-01-08T08:55:30.541Z,57714.44
2023-01-08T08:58:07.000Z,57772.16
2023-01-08T09:00:35.904Z,57837.84
2023-01-08T09:03:05.017Z,57857.75
2023-01-08T09:05:37.344Z,57907.50
2023-01-08T09:08:06.076Z,57873.66
2023-01-08T09:10:34.716Z,57823.91
2023-01-08T09:13:04.782Z,57768.16
2023-01-08T09:15:33.554Z,57937.38
2023-01-08T09:18:02.163Z,57991.13
2023-01-08T09:20:31.120Z,58104.59
2023-01-08T09:23:00.565Z,58341.50
2023-01-08T09:25:29.572Z,58174.28
2023-01-08T09:28:02.794Z,58261.88
2023-01-08T09:30:33.841Z,58293.72
2023-01-08T09:33:04.832Z,58005.06
2023-01-08T09:35:34.260Z,58032.94
2023-01-08T09:38:02.833Z,58034.91
2023-01-08T09:40:36.577Z,58277.78
2023-01-08T09:43:06.946Z,57999.09
2023-01-08T09:45:40.953Z,57945.34
2023-01-08T09:48:18.201Z,57849.78
2023-01-08T09:50:48.583Z,57855.75
2023-01-08T09:53:18.987Z,57469.59
2023-01-08T09:56:09.265Z,57431.78
2023-01-08T09:58:41.352Z,57366.09
2023-01-08T10:01:15.044Z,57469.59
2023-01-08T10:03:47.263Z,57210.84
2023-01-08T10:06:17.866Z,57302.41
2023-01-08T10:08:46.750Z,57051.63
2023-01-08T10:11:17.078Z,56910.34
2023-01-08T10:13:49.431Z,57075.53
2023-01-08T10:16:26.771Z,57027.75
2023-01-08T10:18:55.262Z,57133.25
2023-01-08T10:21:30.584Z,57262.59
2023-01-08T10:23:59.389Z,57055.63
2023-01-08T10:26:31.466Z,57005.88
2023-01-08T10:29:11.181Z,56663.59
2023-01-08T10:31:53.664Z,56392.97
2023-01-08T10:34:33.775Z,56144.25
2023-01-08T10:37:02.318Z,56108.44
2023-01-08T10:39:33.336Z,56203.94
2023-01-08T10:42:07.890Z,56088.53
2023-01-08T10:44:37.123Z,56074.63
2023-01-08T10:47:07.822Z,56106.44
2023-01-08T10:49:41.943Z,56116.41
2023-01-08T10:52:25.999Z,56120.38
2023-01-08T10:54:54.587Z,56231.81
2023-01-08T10:57:28.633Z,56502.41
2023-01-08T10:59:57.884Z,56844.66
2023-01-08T11:02:37.295Z,57163.09
2023-01-08T11:05:10.405Z,57505.44
2023-01-08T11:07:40.360Z,57732.34
2023-01-08T11:10:23.605Z,58771.56
2023-01-08T11:12:57.509Z,58893.03
2023-01-08T11:15:32.228Z,59795.16
2023-01-08T11:18:17.554Z,60189.56
2023-01-08T11:20:46.274Z,61301.28
2023-01-08T11:23:22.070Z,62730.28
2023-01-08T11:25:57.552Z,63434.06
2023-01-08T11:28:32.588Z,64985.66
2023-01-08T11:31:12.922Z,66057.03
2023-01-08T11:33:45.959Z,67092.81
2023-01-08T11:36:23.341Z,69630.69
2023-01-08T11:38:51.746Z,71442.94
2023-01-08T11:41:41.269Z,74258.06
2023-01-08T11:44:26.197Z,77075.53
2023-01-08T11:47:03.884Z,81177.78
2023-01-08T11:49:59.429Z,79895.28
2023-01-08T11:52:44.525Z,79895.28
2023-01-08T11:55:31.196Z,81690.91
2023-01-08T11:58:12.878Z,81947.50
2023-01-08T12:00:56.719Z,81690.91
2023-01-08T12:03:32.064Z,79895.28
2023-01-08T12:06:13.159Z,78869.66
2023-01-08T12:08:49.380Z,77331.78
2023-01-08T12:11:25.559Z,75794.56
2023-01-08T12:14:07.495Z,73746.06
2023-01-08T12:16:53.644Z,69842.44
2023-01-08T12:19:31.883Z,65749.75
2023-01-08T12:22:20.441Z,64343.41
2023-01-08T12:25:17.734Z,60858.94
2023-01-08T12:27:59.904Z,59157.88
2023-01-08T12:30:43.727Z,58415.16
2023-01-08T12:33:17.935Z,57718.41
2023-01-08T12:35:50.415Z,57051.63
2023-01-08T12:38:27.006Z,56741.19
2023-01-08T12:40:59.822Z,55921.44
2023-01-08T12:43:33.229Z,55569.31
2023-01-08T12:46:04.312Z,55370.38
2023-01-08T12:48:36.648Z,55193.34
2023-01-08T12:51:12.056Z,55052.13
2023-01-08T12:53:50.778Z,54875.13
2023-01-08T12:56:25.436Z,54775.69
2023-01-08T12:59:12.530Z,54676.25
2023-01-08T13:01:49.260Z,54604.66
2023-01-08T13:04:18.062Z,54588.75
2023-01-08T13:06:57.927Z,54531.06
2023-01-08T13:09:28.844Z,54521.13
2023-01-08T13:11:59.974Z,54521.13
2023-01-08T13:14:29.262Z,54499.25
2023-01-08T13:17:06.725Z,54391.84
2023-01-08T13:19:41.703Z,54208.91
2023-01-08T13:22:25.701Z,54133.34
2023-01-08T13:25:10.678Z,54037.91
2023-01-08T13:27:39.255Z,54043.88
2023-01-08T13:30:39.781Z,53996.16
2023-01-08T13:33:37.167Z,53984.22
2023-01-08T13:36:21.137Z,53956.38
2023-01-08T13:39:01.731Z,53944.47
2023-01-08T13:41:33.698Z,53942.47
2023-01-08T13:44:05.429Z,53916.63
2023-01-08T13:46:37.247Z,53984.22
2023-01-08T13:49:07.760Z,53938.50
2023-01-08T13:51:43.419Z,53920.59
2023-01-08T13:54:21.747Z,53948.44
2023-01-08T13:56:56.105Z,53860.94
2023-01-08T13:59:41.083Z,53916.63
2023-01-08T14:02:26.834Z,53920.59
2023-01-08T14:04:56.114Z,53892.75
2023-01-08T14:07:25.132Z,53902.69
2023-01-08T14:09:54.251Z,53946.44
2023-01-08T14:12:26.155Z,53914.63
2023-01-08T14:14:58.995Z,53912.66
2023-01-08T14:17:32.372Z,53918.59
2023-01-08T14:20:01.252Z,53936.50
2023-01-08T14:22:36.797Z,53908.66
2023-01-08T14:25:07.867Z,53910.66
2023-01-08T14:27:38.011Z,53900.72
2023-01-08T14:30:19.601Z,53916.63
2023-01-08T14:32:48.092Z,53924.56
2023-01-08T14:35:19.498Z,53888.78
2023-01-08T14:37:48.215Z,53890.78
2023-01-08T14:40:17.849Z,53906.69
2023-01-08T14:42:53.242Z,53896.75
2023-01-08T14:45:25.691Z,53918.59
2023-01-08T14:47:57.760Z,53912.66
2023-01-08T14:50:28.234Z,53942.47
2023-01-08T14:53:00.641Z,53960.38
2023-01-08T14:55:30.763Z,53938.50
2023-01-08T14:58:01.007Z,53984.22
2023-01-08T15:00:32.076Z,53974.28
2023-01-08T15:03:00.801Z,53964.34
2023-01-08T15:05:31.109Z,53970.31
2023-01-08T15:08:02.841Z,53988.19
2023-01-08T15:10:40.759Z,54010.06
2023-01-08T15:13:23.540Z,53996.16
2023-01-08T15:15:58.564Z,54016.03
2023-01-08T15:18:27.645Z,54004.09
2023-01-08T15:20:56.773Z,53990.19
2023-01-08T15:23:30.209Z,54012.06
2023-01-08T15:26:00.827Z,54006.09
2023-01-08T15:28:30.818Z,54027.97
2023-01-08T15:30:59.688Z,54018.03
2023-01-08T15:33:29.243Z,54039.91
2023-01-08T15:35:58.280Z,53996.16
2023-01-08T15:38:26.931Z,54031.94
2023-01-08T15:40:56.281Z,54025.97
2023-01-08T15:43:24.092Z,54069.72
2023-01-08T15:45:54.171Z,54085.63
2023-01-08T15:48:22.816Z,54059.78
2023-01-08T15:50:52.669Z,54047.84
2023-01-08T15:53:23.430Z,54091.59
2023-01-08T15:55:53.087Z,54079.66
2023-01-08T15:58:21.575Z,54115.47
2023-01-08T16:00:50.237Z,54119.44
2023-01-08T16:03:21.358Z,54111.47
2023-01-08T16:05:50.090Z,54133.34
2023-01-08T16:08:19.072Z,54149.25
2023-01-08T16:10:53.196Z,54141.31
2023-01-08T16:13:22.111Z,54151.25
2023-01-08T16:15:50.675Z,54187.03
2023-01-08T16:18:20.646Z,54159.19
2023-01-08T16:20:49.299Z,54149.25
2023-01-08T16:23:17.815Z,54167.16
2023-01-08T16:25:46.400Z,54151.25
2023-01-08T16:28:15.038Z,54151.25
2023-01-08T16:30:44.156Z,54121.41
2023-01-08T16:33:12.894Z,54155.22
2023-01-08T16:35:43.010Z,54129.38
2023-01-08T16:38:14.509Z,54119.44
2023-01-08T16:40:43.071Z,54115.47
2023-01-08T16:43:13.208Z,54135.34
2023-01-08T16:45:47.232Z,54127.38
2023-01-08T16:48:15.980Z,54141.31
2023-01-08T16:50:46.698Z,54161.19
2023-01-08T16:53:17.471Z,54163.19
2023-01-08T16:55:46.050Z,54195.00
2023-01-08T16:58:14.793Z,54198.97
2023-01-08T17:00:43.394Z,54161.19
2023-01-08T17:03:11.995Z,54167.16
2023-01-08T17:05:40.789Z,54171.13
2023-01-08T17:08:15.892Z,54228.81
2023-01-08T17:10:45.430Z,54238.75
2023-01-08T17:13:14.111Z,54234.75
2023-01-08T17:15:42.741Z,54236.75
2023-01-08T17:18:11.675Z,54272.53
2023-01-08T17:20:40.337Z,54306.34
2023-01-08T17:23:10.275Z,54286.47
2023-01-08T17:25:41.554Z,54312.31
2023-01-08T17:28:10.088Z,54302.38
2023-01-08T17:30:38.601Z,54356.06
2023-01-08T17:33:07.302Z,54348.13
2023-01-08T17:35:35.962Z,54364.03
2023-01-08T17:38:04.504Z,54379.94
2023-01-08T17:40:34.596Z,54397.81
2023-01-08T17:43:03.372Z,54413.72
2023-01-08T17:45:32.167Z,54417.72
2023-01-08T17:48:00.761Z,54445.56
2023-01-08T17:50:29.341Z,54493.28
2023-01-08T17:52:59.082Z,54529.06
2023-01-08T17:55:27.858Z,54618.56
2023-01-08T17:57:57.857Z,54614.59
2023-01-08T18:00:26.532Z,54662.31
2023-01-08T18:02:55.178Z,54648.41
2023-01-08T18:05:23.757Z,54656.34
2023-01-08T18:07:52.217Z,54662.31
2023-01-08T18:10:21.032Z,54720.00
2023-01-08T18:12:49.718Z,54739.88
2023-01-08T18:15:20.049Z,54803.53
2023-01-08T18:17:49.845Z,54795.56
2023-01-08T18:20:18.919Z,54811.47
2023-01-08T18:22:47.470Z,54839.31
2023-01-08T18:25:16.085Z,54857.22
2023-01-08T18:27:44.702Z,54902.97
2023-01-08T18:30:14.247Z,54944.72
2023-01-08T18:32:44.255Z,54916.88
2023-01-08T18:35:13.000Z,54972.56
2023-01-08T18:37:41.363Z,54990.47
2023-01-08T18:40:11.139Z,55095.88
2023-01-08T18:42:39.708Z,55171.47
2023-01-08T18:45:11.118Z,55247.06
2023-01-08T18:47:39.746Z,55308.72
2023-01-08T18:50:11.061Z,55308.72
2023-01-08T18:52:41.389Z,55288.84
2023-01-08T18:55:10.594Z,55334.59
2023-01-08T18:57:39.468Z,55416.13
2023-01-08T19:00:09.363Z,55447.97
2023-01-08T19:02:37.982Z,55555.38
2023-01-08T19:05:07.133Z,55575.28
2023-01-08T19:07:37.014Z,55573.28
2023-01-08T19:10:05.996Z,55565.31
2023-01-08T19:12:35.272Z,55529.53
2023-01-08T19:15:03.834Z,55545.44
2023-01-08T19:17:33.394Z,55505.66
2023-01-08T19:20:01.882Z,55511.63
2023-01-08T19:22:32.240Z,55503.66
2023-01-08T19:25:02.099Z,55553.41
2023-01-08T19:27:30.527Z,55535.50
2023-01-08T19:29:59.043Z,55583.22
2023-01-08T19:32:27.501Z,55447.97
2023-01-08T19:34:57.733Z,55577.25
2023-01-08T19:37:26.756Z,55567.31
2023-01-08T19:39:55.255Z,55599.16
2023-01-08T19:42:42.828Z,55670.75
2023-01-08T19:45:11.362Z,55770.22
2023-01-08T19:47:39.865Z,55816.00
2023-01-08T19:50:09.414Z,55861.75
2023-01-08T19:52:38.001Z,55939.34
2023-01-08T19:55:06.981Z,56012.94
2023-01-08T19:57:37.166Z,56040.78
2023-01-08T20:00:07.057Z,56003.00
2023-01-08T20:02:40.259Z,56001.00
2023-01-08T20:05:09.596Z,56003.00
2023-01-08T20:07:38.226Z,56158.19
2023-01-08T20:10:09.082Z,56134.31
2023-01-08T20:12:40.880Z,56140.28
2023-01-08T20:15:11.109Z,56211.91
2023-01-08T20:17:42.747Z,56144.25
2023-01-08T20:20:12.698Z,56166.16
2023-01-08T20:22:41.284Z,56160.19
2023-01-08T20:25:10.485Z,56205.94
2023-01-08T20:27:40.890Z,56229.81
2023-01-08T20:30:10.929Z,56217.88
2023-01-08T20:32:39.420Z,56192.00
2023-01-08T20:35:08.290Z,56259.66
2023-01-08T20:37:36.675Z,56235.78
2023-01-08T20:40:05.632Z,56223.84
2023-01-08T20:42:34.685Z,56315.38
2023-01-08T20:45:04.862Z,56319.34
2023-01-08T20:47:36.139Z,56263.63
2023-01-08T20:50:12.361Z,56371.09
2023-01-08T20:52:47.682Z,56345.22
2023-01-08T20:55:18.461Z,56239.75
2023-01-08T20:57:47.140Z,56197.97
2023-01-08T21:00:18.598Z,56213.91
2023-01-08T21:02:47.325Z,56279.56
2023-01-08T21:05:15.905Z,56192.00
2023-01-08T21:07:44.806Z,56227.81
2023-01-08T21:10:13.614Z,56263.63
2023-01-08T21:12:42.460Z,56164.16
2023-01-08T21:15:12.554Z,56172.13
2023-01-08T21:17:42.634Z,56116.41
2023-01-08T21:20:12.700Z,56201.97
2023-01-08T21:22:41.195Z,56114.41
2023-01-08T21:25:10.559Z,56114.41
2023-01-08T21:27:39.431Z,56188.03
2023-01-08T21:30:09.325Z,56215.88
2023-01-08T21:32:38.045Z,56168.13
2023-01-08T21:35:09.139Z,56158.19
2023-01-08T21:37:38.304Z,56196.00
2023-01-08T21:40:08.055Z,56247.72
2023-01-08T21:42:56.795Z,56349.19
2023-01-08T21:45:29.730Z,56271.59
2023-01-08T21:47:58.932Z,56329.28
2023-01-08T21:50:28.865Z,56357.16
2023-01-08T21:53:14.929Z,56349.19
2023-01-08T21:55:43.479Z,56404.91
2023-01-08T21:58:11.968Z,56414.84
2023-01-08T22:00:40.583Z,56394.97
2023-01-08T22:03:09.185Z,56412.88
2023-01-08T22:05:39.361Z,56532.25
2023-01-08T22:08:08.872Z,56566.09
2023-01-08T22:10:37.386Z,56709.34
2023-01-08T22:13:07.346Z,56721.28
2023-01-08T22:15:35.905Z,56782.97
2023-01-08T22:18:04.518Z,56930.25
2023-01-08T22:20:33.130Z,57111.34
2023-01-08T22:23:03.336Z,57306.38
2023-01-08T22:25:32.079Z,57378.03
2023-01-08T22:28:00.545Z,57547.22
2023-01-08T22:30:29.367Z,57684.56
2023-01-08T22:32:58.005Z,57831.88
2023-01-08T22:35:26.572Z,58074.72
2023-01-08T22:37:55.282Z,58628.19
2023-01-08T22:40:25.198Z,58725.75
2023-01-08T22:42:53.754Z,59102.09
2023-01-08T22:45:22.158Z,59528.28
2023-01-08T22:47:50.508Z,60436.56
2023-01-08T22:50:18.991Z,60705.53
2023-01-08T22:52:47.716Z,61681.88
2023-01-08T22:55:16.257Z,63204.78
2023-01-08T22:57:46.058Z,63493.88
2023-01-08T23:00:15.633Z,65456.47
2023-01-08T23:02:44.149Z,67735.59
2023-01-08T23:05:12.738Z,69786.50
2023-01-08T23:07:41.349Z,74258.06
2023-01-08T23:10:11.382Z,75026.22
2023-01-08T23:12:39.821Z,77075.53
2023-01-08T23:15:10.832Z,76563.09
2023-01-08T23:17:51.553Z,77844.31
2023-01-08T23:20:23.445Z,79382.44
2023-01-08T23:22:52.422Z,80921.25
2023-01-08T23:25:21.170Z,81947.50
2023-01-08T23:27:49.668Z,84000.91
2023-01-08T23:30:20.956Z,84257.66
2023-01-08T23:32:49.344Z,86569.41
2023-01-08T23:35:17.972Z,87083.34
2023-01-08T23:37:46.304Z,87597.34
2023-01-08T23:40:16.000Z,88368.50
2023-01-08T23:42:44.426Z,89139.81
2023-01-08T23:45:13.205Z,89911.31
2023-01-08T23:47:43.028Z,90425.72
2023-01-08T23:50:12.623Z,90682.97
2023-01-08T23:52:41.024Z,91197.50
2023-01-08T23:55:10.271Z,91969.47
2023-01-08T23:57:38.719Z,93256.44
